createdAt,value
2022-11-26T00:01:24.722Z,78.12
2022-11-26T00:02:56.747Z,78.19
2022-11-26T00:04:28.645Z,78.35
2022-11-26T00:06:00.568Z,78.57
2022-11-26T00:07:33.079Z,78.28
2022-11-26T00:09:06.269Z,78.14
2022-11-26T00:10:38.095Z,78.30
2022-11-26T00:12:20.301Z,78.60
2022-11-26T00:13:52.274Z,78.72
2022-11-26T00:15:30.789Z,78.87
2022-11-26T00:17:02.804Z,78.97
2022-11-26T00:18:34.735Z,78.72
2022-11-26T00:20:07.041Z,78.73
2022-11-26T00:21:39.750Z,78.77
2022-11-26T00:23:23.797Z,79.11
2022-11-26T00:24:55.766Z,79.23
2022-11-26T00:26:27.690Z,78.91
2022-11-26T00:27:59.498Z,79.13
2022-11-26T00:29:31.379Z,79.27
2022-11-26T00:31:05.510Z,78.84
2022-11-26T00:32:37.387Z,79.14
2022-11-26T00:34:09.245Z,79.01
2022-11-26T00:35:41.228Z,79.17
2022-11-26T00:37:19.435Z,78.62
2022-11-26T00:38:55.398Z,78.65
2022-11-26T00:40:28.300Z,78.81
2022-11-26T00:42:00.112Z,78.75
2022-11-26T00:43:31.969Z,78.69
2022-11-26T00:45:06.295Z,78.48
2022-11-26T00:46:38.213Z,78.63
2022-11-26T00:48:10.151Z,78.72
2022-11-26T00:49:42.007Z,78.68
2022-11-26T00:51:18.441Z,78.78
2022-11-26T00:52:51.605Z,78.95
2022-11-26T00:54:23.766Z,79.04
2022-11-26T00:55:55.617Z,79.02
2022-11-26T00:57:27.591Z,79.24
2022-11-26T00:58:59.590Z,79.11
2022-11-26T01:00:32.610Z,79.27
2022-11-26T01:02:04.503Z,79.35
2022-11-26T01:03:36.398Z,79.15
2022-11-26T01:05:08.986Z,78.97
2022-11-26T01:06:41.316Z,79.37
2022-11-26T01:08:16.869Z,79.22
2022-11-26T01:09:48.928Z,79.19
2022-11-26T01:11:21.420Z,79.50
2022-11-26T01:12:53.588Z,79.57
2022-11-26T01:14:25.416Z,79.45
2022-11-26T01:15:57.798Z,79.42
2022-11-26T01:17:29.767Z,79.81
2022-11-26T01:19:02.615Z,79.66
2022-11-26T01:20:34.674Z,79.59
2022-11-26T01:22:06.507Z,79.88
2022-11-26T01:23:38.331Z,79.87
2022-11-26T01:25:10.139Z,80.04
2022-11-26T01:26:43.111Z,80.28
2022-11-26T01:28:20.115Z,80.20
2022-11-26T01:29:51.974Z,80.04
2022-11-26T01:31:25.547Z,80.17
2022-11-26T01:32:57.535Z,80.25
2022-11-26T01:34:29.341Z,80.36
2022-11-26T01:36:01.213Z,79.54
2022-11-26T01:37:33.055Z,79.41
2022-11-26T01:39:06.550Z,79.21
2022-11-26T01:40:56.852Z,79.18
2022-11-26T01:42:38.321Z,78.97
2022-11-26T01:44:15.052Z,79.07
2022-11-26T01:45:47.009Z,79.09
2022-11-26T01:47:29.343Z,79.32
2022-11-26T01:51:07.398Z,79.65
2022-11-26T01:52:39.169Z,79.54
2022-11-26T01:54:11.012Z,79.50
2022-11-26T01:55:45.687Z,79.61
2022-11-26T01:57:24.506Z,79.58
2022-11-26T01:59:04.074Z,79.30
2022-11-26T02:00:35.951Z,79.53
2022-11-26T02:02:08.054Z,79.53
2022-11-26T02:03:43.537Z,79.50
2022-11-26T02:05:19.417Z,79.35
2022-11-26T02:06:51.550Z,79.35
2022-11-26T02:08:26.403Z,79.64
2022-11-26T02:09:58.229Z,79.66
2022-11-26T02:11:30.147Z,79.74
2022-11-26T02:13:02.236Z,79.43
2022-11-26T02:14:38.364Z,79.37
2022-11-26T02:16:28.871Z,79.18
2022-11-26T02:18:04.955Z,79.11
2022-11-26T02:21:09.853Z,79.40
2022-11-26T02:22:47.555Z,79.56
2022-11-26T02:24:30.499Z,79.74
2022-11-26T02:26:02.417Z,79.77
2022-11-26T02:27:39.882Z,79.30
2022-11-26T02:29:17.410Z,79.20
2022-11-26T02:30:50.391Z,79.38
2022-11-26T02:32:23.258Z,79.39
2022-11-26T02:33:58.374Z,79.54
2022-11-26T02:35:42.210Z,79.44
2022-11-26T02:37:15.867Z,79.15
2022-11-26T02:38:47.887Z,79.32
2022-11-26T02:40:19.932Z,79.22
2022-11-26T02:41:53.042Z,79.45
2022-11-26T02:43:25.020Z,79.36
2022-11-26T02:44:58.211Z,79.36
2022-11-26T02:46:32.400Z,79.15
2022-11-26T02:48:04.619Z,79.27
2022-11-26T02:49:36.448Z,78.81
2022-11-26T02:51:15.366Z,78.72
2022-11-26T02:52:47.170Z,78.93
2022-11-26T02:54:18.954Z,78.94
2022-11-26T02:55:51.616Z,78.47
2022-11-26T02:57:24.386Z,78.66
2022-11-26T02:58:56.246Z,78.74
2022-11-26T03:00:28.301Z,78.48
2022-11-26T03:02:08.470Z,78.65
2022-11-26T03:03:41.319Z,78.88
2022-11-26T03:05:13.409Z,78.98
2022-11-26T03:06:45.312Z,78.96
2022-11-26T03:08:17.217Z,78.67
2022-11-26T03:09:53.690Z,78.51
2022-11-26T03:11:25.530Z,78.79
2022-11-26T03:12:57.620Z,78.87
2022-11-26T03:14:29.434Z,79.21
2022-11-26T03:16:01.299Z,79.27
2022-11-26T03:17:33.210Z,79.13
2022-11-26T03:19:05.160Z,79.18
2022-11-26T03:20:37.145Z,79.24
2022-11-26T03:22:08.976Z,79.14
2022-11-26T03:23:40.870Z,79.22
2022-11-26T03:25:12.809Z,79.09
2022-11-26T03:26:44.643Z,79.00
2022-11-26T03:28:16.399Z,79.16
2022-11-26T03:29:48.227Z,79.23
2022-11-26T03:31:20.172Z,79.39
2022-11-26T03:32:52.015Z,79.49
2022-11-26T03:34:23.895Z,79.41
2022-11-26T03:35:55.823Z,79.60
2022-11-26T03:37:27.761Z,79.56
2022-11-26T03:38:59.654Z,79.51
2022-11-26T03:40:31.569Z,79.62
2022-11-26T03:42:03.418Z,79.77
2022-11-26T03:43:35.243Z,79.95
2022-11-26T03:45:07.245Z,79.75
2022-11-26T03:46:39.333Z,79.86
2022-11-26T03:48:11.137Z,79.73
2022-11-26T03:49:42.947Z,79.62
2022-11-26T03:51:14.858Z,79.69
2022-11-26T03:52:46.865Z,79.32
2022-11-26T03:54:18.758Z,79.24
2022-11-26T03:55:50.612Z,79.13
2022-11-26T03:57:22.638Z,78.89
2022-11-26T03:58:54.522Z,78.85
2022-11-26T04:00:26.367Z,78.62
2022-11-26T04:01:58.300Z,78.93
2022-11-26T04:03:30.531Z,78.79
2022-11-26T04:05:04.766Z,78.84
2022-11-26T04:06:36.599Z,78.57
2022-11-26T04:08:08.506Z,78.47
2022-11-26T04:09:40.304Z,78.55
2022-11-26T04:11:12.148Z,79.03
2022-11-26T04:12:43.999Z,78.94
2022-11-26T04:14:15.945Z,78.93
2022-11-26T04:15:48.325Z,78.99
2022-11-26T04:17:20.210Z,79.15
2022-11-26T04:18:52.263Z,78.95
2022-11-26T04:20:24.214Z,78.99
2022-11-26T04:21:56.253Z,78.88
2022-11-26T04:23:28.212Z,78.91
2022-11-26T04:25:00.058Z,78.91
2022-11-26T04:26:31.892Z,79.12
2022-11-26T04:28:03.808Z,79.06
2022-11-26T04:29:37.742Z,78.78
2022-11-26T04:31:09.683Z,78.70
2022-11-26T04:32:41.597Z,78.94
2022-11-26T04:34:13.680Z,78.77
2022-11-26T04:35:45.533Z,78.77
2022-11-26T04:37:17.403Z,79.05
2022-11-26T04:38:49.281Z,79.20
2022-11-26T04:40:21.124Z,78.92
2022-11-26T04:41:53.292Z,79.04
2022-11-26T04:43:25.155Z,79.02
2022-11-26T04:44:57.051Z,78.95
2022-11-26T04:46:28.876Z,78.74
2022-11-26T04:48:00.771Z,78.74
2022-11-26T04:49:32.661Z,78.86
2022-11-26T04:51:04.615Z,78.87
2022-11-26T04:52:36.630Z,78.97
2022-11-26T04:54:12.924Z,78.73
2022-11-26T04:55:45.302Z,78.50
2022-11-26T04:57:17.223Z,78.38
2022-11-26T04:58:49.125Z,78.72
2022-11-26T05:00:21.235Z,78.67
2022-11-26T05:01:53.050Z,78.87
2022-11-26T05:03:25.100Z,78.96
2022-11-26T05:04:56.991Z,79.23
2022-11-26T05:06:28.911Z,79.30
2022-11-26T05:08:00.915Z,79.29
2022-11-26T05:09:32.742Z,79.13
2022-11-26T05:11:04.589Z,78.63
2022-11-26T05:12:36.763Z,78.55
2022-11-26T05:14:08.669Z,78.98
2022-11-26T05:15:40.528Z,78.77
2022-11-26T05:17:12.371Z,78.84
2022-11-26T05:18:44.184Z,79.24
2022-11-26T05:20:16.055Z,79.32
2022-11-26T05:21:47.965Z,79.30
2022-11-26T05:23:19.773Z,78.97
2022-11-26T05:24:51.626Z,78.77
2022-11-26T05:26:23.570Z,78.78
2022-11-26T05:27:55.438Z,78.84
2022-11-26T05:29:27.484Z,78.69
2022-11-26T05:31:00.322Z,79.06
2022-11-26T05:32:32.298Z,79.10
2022-11-26T05:34:04.187Z,79.41
2022-11-26T05:35:36.159Z,79.80
2022-11-26T05:37:07.982Z,79.61
2022-11-26T05:38:40.222Z,79.66
2022-11-26T05:40:12.333Z,79.45
2022-11-26T05:41:44.298Z,79.33
2022-11-26T05:43:16.096Z,78.88
2022-11-26T05:44:48.339Z,78.89
2022-11-26T05:46:20.543Z,79.02
2022-11-26T05:47:52.656Z,78.98
2022-11-26T05:49:24.896Z,79.26
2022-11-26T05:50:57.993Z,79.33
2022-11-26T05:54:08.217Z,78.87
2022-11-26T05:55:40.496Z,78.96
2022-11-26T05:57:12.378Z,78.93
2022-11-26T05:58:44.234Z,79.17
2022-11-26T06:00:16.556Z,79.35
2022-11-26T06:01:48.619Z,79.37
2022-11-26T06:03:20.958Z,79.59
2022-11-26T06:04:53.064Z,79.83
2022-11-26T06:06:24.974Z,80.02
2022-11-26T06:07:57.288Z,80.43
2022-11-26T06:09:29.693Z,80.43
2022-11-26T06:11:02.082Z,80.61
2022-11-26T06:12:34.350Z,80.37
2022-11-26T06:14:06.515Z,80.50
2022-11-26T06:15:38.700Z,80.63
2022-11-26T06:17:11.163Z,80.65
2022-11-26T06:18:43.269Z,80.68
2022-11-26T06:20:15.292Z,80.62
2022-11-26T06:23:19.873Z,80.48
2022-11-26T06:24:51.720Z,80.55
2022-11-26T06:26:23.678Z,80.60
2022-11-26T06:27:55.983Z,80.52
2022-11-26T06:29:28.516Z,80.72
2022-11-26T06:31:00.723Z,80.84
2022-11-26T06:32:32.772Z,80.76
2022-11-26T06:34:07.095Z,81.10
2022-11-26T06:35:38.998Z,81.18
2022-11-26T06:37:11.021Z,81.10
2022-11-26T06:38:43.151Z,81.32
2022-11-26T06:40:18.918Z,81.30
2022-11-26T06:41:50.752Z,81.91
2022-11-26T06:43:22.822Z,81.88
2022-11-26T06:44:59.466Z,82.11
2022-11-26T06:46:33.982Z,81.85
2022-11-26T06:48:06.054Z,81.92
2022-11-26T06:49:38.068Z,81.87
2022-11-26T06:51:11.094Z,81.79
2022-11-26T06:52:43.008Z,81.85
2022-11-26T06:54:14.882Z,81.68
2022-11-26T06:55:46.867Z,81.89
2022-11-26T06:57:18.856Z,81.69
2022-11-26T06:58:52.469Z,81.63
2022-11-26T07:00:24.340Z,81.61
2022-11-26T07:01:56.488Z,81.64
2022-11-26T07:03:33.236Z,81.98
2022-11-26T07:05:08.058Z,81.96
2022-11-26T07:06:40.167Z,82.12
2022-11-26T07:08:12.183Z,81.98
2022-11-26T07:09:44.125Z,81.85
2022-11-26T07:11:16.064Z,82.12
2022-11-26T07:12:48.112Z,82.22
2022-11-26T07:14:22.012Z,82.21
2022-11-26T07:15:53.994Z,82.49
2022-11-26T07:17:26.116Z,82.40
2022-11-26T07:19:02.665Z,82.51
2022-11-26T07:20:36.368Z,82.71
2022-11-26T07:22:08.264Z,82.36
2022-11-26T07:23:40.538Z,82.27
2022-11-26T07:25:13.148Z,82.05
2022-11-26T07:28:17.070Z,82.06
2022-11-26T07:29:49.065Z,81.81
2022-11-26T07:31:21.697Z,81.49
2022-11-26T07:32:53.624Z,81.32
2022-11-26T07:34:25.633Z,81.24
2022-11-26T07:36:01.210Z,80.93
2022-11-26T07:37:34.151Z,80.88
2022-11-26T07:39:06.126Z,80.88
2022-11-26T07:40:38.219Z,80.60
2022-11-26T07:42:10.317Z,80.34
2022-11-26T07:43:42.706Z,80.30
2022-11-26T07:45:14.702Z,80.46
2022-11-26T07:46:46.644Z,80.72
2022-11-26T07:48:18.530Z,80.53
2022-11-26T07:49:50.499Z,80.53
2022-11-26T07:51:29.620Z,80.51
2022-11-26T07:53:01.636Z,80.03
2022-11-26T07:54:33.922Z,80.00
2022-11-26T07:57:37.702Z,79.76
2022-11-26T07:59:10.038Z,79.63
2022-11-26T10:26:29.776Z,49.95
2022-11-26T10:28:01.724Z,49.66
2022-11-26T10:29:35.338Z,49.25
2022-11-26T10:31:10.932Z,50.36
2022-11-26T10:32:43.083Z,49.93
2022-11-26T10:34:17.734Z,49.18
2022-11-26T10:35:49.971Z,49.55
2022-11-26T10:37:22.844Z,49.72
2022-11-26T10:38:58.447Z,49.64
2022-11-26T10:40:31.412Z,49.09
2022-11-26T10:42:19.803Z,51.55
2022-11-26T10:43:51.829Z,53.29
2022-11-26T10:45:25.117Z,55.49
2022-11-26T10:46:57.526Z,54.11
2022-11-26T10:48:35.690Z,55.19
2022-11-26T10:50:25.437Z,54.49
2022-11-26T10:52:01.416Z,56.15
2022-11-26T10:53:53.468Z,56.01
2022-11-26T10:55:27.309Z,55.39
2022-11-26T10:57:03.015Z,54.97
2022-11-26T10:58:39.197Z,54.69
2022-11-26T11:00:27.237Z,55.50
2022-11-26T11:02:07.342Z,51.24
2022-11-26T11:05:39.339Z,49.88
2022-11-26T11:07:31.753Z,47.69
2022-11-26T11:09:19.351Z,48.02
2022-11-26T11:10:55.745Z,48.08
2022-11-26T11:12:27.758Z,48.00
2022-11-26T11:14:00.100Z,48.04
2022-11-26T11:15:33.221Z,48.04
2022-11-26T11:17:05.188Z,48.76
2022-11-26T11:18:37.278Z,48.32
2022-11-26T11:20:15.131Z,48.67
2022-11-26T11:21:48.540Z,47.00
2022-11-26T11:24:56.376Z,47.55
2022-11-26T11:26:29.019Z,46.76
2022-11-26T11:28:10.466Z,47.43
2022-11-26T11:29:44.092Z,47.66
2022-11-26T11:31:17.250Z,46.65
2022-11-26T11:32:51.439Z,46.87
2022-11-26T11:34:24.518Z,48.32
2022-11-26T11:36:05.975Z,49.09
2022-11-26T11:37:43.226Z,49.79
2022-11-26T11:39:28.327Z,48.09
2022-11-26T11:41:02.211Z,49.51
2022-11-26T11:42:34.193Z,49.38
2022-11-26T11:44:19.151Z,49.52
2022-11-26T11:46:03.414Z,50.50
2022-11-26T11:47:38.813Z,50.02
2022-11-26T11:49:10.765Z,50.45
2022-11-26T11:50:43.420Z,50.42
2022-11-26T11:52:27.382Z,51.45
2022-11-26T11:54:07.783Z,51.63
2022-11-26T11:55:48.664Z,50.28
2022-11-26T11:57:41.023Z,51.17
2022-11-26T11:59:19.420Z,51.62
2022-11-26T12:00:54.676Z,50.95
2022-11-26T12:02:49.103Z,50.85
2022-11-26T12:04:39.570Z,52.84
2022-11-26T12:06:20.057Z,51.84
2022-11-26T12:07:57.738Z,51.61
2022-11-26T12:09:34.263Z,50.48
2022-11-26T12:11:06.530Z,50.64
2022-11-26T12:12:39.080Z,51.89
2022-11-26T12:14:17.490Z,51.56
2022-11-26T12:15:49.504Z,51.27
2022-11-26T12:17:31.849Z,50.32
2022-11-26T12:19:07.820Z,51.46
2022-11-26T12:20:41.177Z,50.28
2022-11-26T12:22:15.075Z,50.74
2022-11-26T12:23:47.094Z,52.13
2022-11-26T12:25:37.510Z,51.66
2022-11-26T12:29:02.939Z,52.88
2022-11-26T12:30:40.745Z,53.22
2022-11-26T12:32:16.932Z,52.97
2022-11-26T12:34:08.317Z,52.51
2022-11-26T12:35:42.997Z,51.61
2022-11-26T12:37:25.647Z,51.34
2022-11-26T12:39:00.082Z,49.94
2022-11-26T12:40:52.086Z,51.09
2022-11-26T12:42:36.130Z,51.65
2022-11-26T12:44:12.954Z,52.26
2022-11-26T12:45:47.690Z,50.11
2022-11-26T12:47:31.357Z,51.39
2022-11-26T12:49:21.694Z,50.42
2022-11-26T12:50:58.785Z,50.69
2022-11-26T12:52:33.053Z,50.54
2022-11-26T12:54:19.619Z,51.14
2022-11-26T12:55:55.801Z,49.78
2022-11-26T12:57:29.594Z,50.67
2022-11-26T12:59:04.455Z,50.26
2022-11-26T13:00:36.761Z,50.82
2022-11-26T13:02:28.107Z,51.79
2022-11-26T13:04:29.454Z,52.24
2022-11-26T13:06:12.018Z,51.07
2022-11-26T13:07:46.952Z,51.28
2022-11-26T13:09:45.625Z,50.53
2022-11-26T13:11:20.746Z,51.44
2022-11-26T13:12:56.188Z,50.77
2022-11-26T13:14:35.585Z,51.64
2022-11-26T13:16:07.617Z,52.71
2022-11-26T13:17:43.706Z,51.37
2022-11-26T13:19:18.814Z,50.47
2022-11-26T13:20:56.779Z,50.29
2022-11-26T13:22:38.340Z,49.94
2022-11-26T13:24:18.537Z,50.96
2022-11-26T13:26:09.830Z,50.17
2022-11-26T13:27:44.642Z,50.40
2022-11-26T13:29:36.065Z,51.00
2022-11-26T13:31:23.297Z,49.99
2022-11-26T13:33:13.411Z,49.63
2022-11-26T13:34:53.810Z,50.24
2022-11-26T13:36:44.870Z,49.97
2022-11-26T13:38:35.195Z,51.99
2022-11-26T13:40:09.469Z,50.91
2022-11-26T13:41:44.252Z,49.25
2022-11-26T13:43:29.547Z,50.96
2022-11-26T13:45:13.463Z,50.60
2022-11-26T13:46:50.552Z,50.57
2022-11-26T13:48:48.589Z,50.28
2022-11-26T13:50:20.512Z,51.55
2022-11-26T13:51:52.509Z,51.36
2022-11-26T13:53:32.587Z,51.16
2022-11-26T13:55:08.931Z,51.01
2022-11-26T13:56:41.120Z,50.59
2022-11-26T13:58:18.791Z,51.03
2022-11-26T13:59:51.371Z,51.23
2022-11-26T14:01:37.483Z,51.02
2022-11-26T14:03:10.727Z,51.80
2022-11-26T14:04:49.533Z,51.06
2022-11-26T14:06:22.114Z,50.73
2022-11-26T14:07:54.375Z,50.41
2022-11-26T14:09:48.055Z,51.00
2022-11-26T14:11:38.725Z,50.92
2022-11-26T14:13:12.051Z,51.07
2022-11-26T14:14:46.528Z,50.96
2022-11-26T14:16:18.827Z,50.99
2022-11-26T14:17:57.438Z,51.11
2022-11-26T14:19:41.360Z,51.09
2022-11-26T14:21:13.783Z,51.08
2022-11-26T14:22:45.846Z,51.29
2022-11-26T14:24:23.227Z,51.36
2022-11-26T14:25:55.407Z,51.02
2022-11-26T14:27:37.785Z,51.35
2022-11-26T14:29:10.465Z,51.22
2022-11-26T14:32:18.961Z,51.39
2022-11-26T14:33:54.900Z,51.83
2022-11-26T14:35:34.710Z,51.98
2022-11-26T14:37:13.217Z,52.58
2022-11-26T14:38:45.359Z,52.54
2022-11-26T14:40:22.091Z,52.60
2022-11-26T14:42:00.343Z,52.80
2022-11-26T14:43:36.061Z,52.91
2022-11-26T14:45:21.054Z,52.81
2022-11-26T14:46:54.694Z,53.46
2022-11-26T14:48:27.823Z,53.66
2022-11-26T14:50:00.916Z,53.73
2022-11-26T14:51:33.119Z,53.97
2022-11-26T14:53:05.783Z,54.38
2022-11-26T14:54:41.567Z,55.05
2022-11-26T14:56:13.942Z,55.49
2022-11-26T14:57:47.450Z,55.15
2022-11-26T14:59:19.526Z,55.30
2022-11-26T15:01:08.370Z,55.51
2022-11-26T15:02:41.768Z,55.78
2022-11-26T15:04:35.046Z,56.45
2022-11-26T15:06:07.551Z,56.99
2022-11-26T15:07:39.622Z,56.78
2022-11-26T15:09:18.840Z,57.86
2022-11-26T15:10:51.009Z,58.20
2022-11-26T15:12:24.114Z,58.57
2022-11-26T15:13:56.220Z,58.93
2022-11-26T15:15:28.440Z,59.20
2022-11-26T15:17:03.778Z,59.60
2022-11-26T15:18:35.894Z,59.65
2022-11-26T15:20:08.746Z,60.38
2022-11-26T15:21:40.975Z,60.32
2022-11-26T15:23:16.590Z,60.42
2022-11-26T15:24:53.862Z,61.09
2022-11-26T15:26:26.127Z,61.10
2022-11-26T15:28:04.468Z,61.09
2022-11-26T15:29:37.316Z,61.41
2022-11-26T15:31:09.727Z,61.65
2022-11-26T15:32:41.788Z,61.78
2022-11-26T15:34:13.996Z,62.29
2022-11-26T15:35:46.106Z,62.72
2022-11-26T15:37:18.040Z,62.76
2022-11-26T15:39:00.315Z,63.21
2022-11-26T15:40:33.486Z,62.95
2022-11-26T15:42:06.993Z,62.91
2022-11-26T15:43:45.052Z,63.35
2022-11-26T15:45:17.392Z,64.03
2022-11-26T15:46:49.934Z,64.08
2022-11-26T15:48:28.127Z,64.32
2022-11-26T15:50:02.041Z,64.44
2022-11-26T15:51:43.974Z,64.60
2022-11-26T15:53:18.093Z,65.04
2022-11-26T15:55:12.948Z,64.78
2022-11-26T15:56:46.189Z,64.98
2022-11-26T15:58:29.217Z,65.42
2022-11-26T16:00:02.834Z,65.87
2022-11-26T16:01:35.363Z,65.56
2022-11-26T16:03:43.274Z,66.12
2022-11-26T16:05:30.237Z,66.36
2022-11-26T16:07:12.868Z,66.93
2022-11-26T16:08:52.552Z,66.61
2022-11-26T16:10:26.572Z,67.00
2022-11-26T16:12:01.881Z,66.78
2022-11-26T16:13:35.029Z,66.71
2022-11-26T16:15:12.205Z,66.79
2022-11-26T16:16:46.767Z,67.00
2022-11-26T16:18:20.703Z,67.22
2022-11-26T16:19:53.770Z,67.06
2022-11-26T16:21:29.213Z,67.25
2022-11-26T16:23:01.504Z,67.85
2022-11-26T16:24:39.463Z,67.90
2022-11-26T16:26:13.724Z,68.44
2022-11-26T16:27:53.351Z,68.64
2022-11-26T16:29:25.929Z,68.63
2022-11-26T16:30:58.165Z,68.42
2022-11-26T16:32:30.385Z,68.60
2022-11-26T16:34:06.669Z,68.83
2022-11-26T16:35:46.243Z,68.89
2022-11-26T16:37:18.610Z,69.08
2022-11-26T16:38:51.171Z,69.04
2022-11-26T16:40:23.329Z,69.28
2022-11-26T16:41:55.310Z,69.30
2022-11-26T16:43:27.417Z,69.41
2022-11-26T16:45:04.385Z,69.77
2022-11-26T16:46:37.046Z,69.83
2022-11-26T16:48:27.437Z,69.90
2022-11-26T16:49:59.633Z,70.08
2022-11-26T16:51:31.769Z,70.16
2022-11-26T16:53:03.801Z,70.51
2022-11-26T16:54:36.045Z,70.59
2022-11-26T16:56:12.063Z,70.88
2022-11-26T16:57:45.004Z,70.95
2022-11-26T16:59:19.102Z,70.82
2022-11-26T17:00:51.854Z,71.07
2022-11-26T17:02:24.626Z,71.15
2022-11-26T17:03:56.925Z,71.37
2022-11-26T17:05:29.189Z,71.09
2022-11-26T17:07:01.272Z,71.31
2022-11-26T17:08:34.568Z,71.42
2022-11-26T17:10:07.121Z,71.42
2022-11-26T17:11:39.323Z,71.67
2022-11-26T17:13:11.706Z,71.48
2022-11-26T17:16:17.727Z,71.25
2022-11-26T17:17:50.254Z,71.48
2022-11-26T17:19:22.288Z,71.33
2022-11-26T17:20:54.846Z,71.48
2022-11-26T17:22:27.244Z,71.54
2022-11-26T17:23:59.329Z,71.66
2022-11-26T17:25:31.470Z,71.73
2022-11-26T17:27:04.339Z,71.60
2022-11-26T17:28:36.288Z,71.74
2022-11-26T17:30:11.114Z,71.82
2022-11-26T17:31:43.405Z,72.10
2022-11-26T17:33:15.904Z,72.48
2022-11-26T17:34:48.676Z,72.92
2022-11-26T17:36:21.294Z,72.91
2022-11-26T17:37:53.309Z,73.00
2022-11-26T17:39:25.514Z,73.05
2022-11-26T17:40:57.565Z,72.78
2022-11-26T17:42:33.572Z,72.82
2022-11-26T17:44:08.886Z,72.82
2022-11-26T17:45:41.299Z,72.77
2022-11-26T17:47:17.441Z,72.68
2022-11-26T17:48:51.457Z,72.83
2022-11-26T17:50:27.685Z,73.19
2022-11-26T17:51:59.699Z,73.26
2022-11-26T17:53:31.849Z,73.70
2022-11-26T17:55:04.054Z,74.15
2022-11-26T17:56:35.915Z,74.40
2022-11-26T17:58:09.027Z,74.57
2022-11-26T17:59:41.520Z,74.38
2022-11-26T18:01:15.147Z,74.55
2022-11-26T18:02:47.567Z,74.80
2022-11-26T18:04:19.734Z,74.78
2022-11-26T18:05:51.877Z,74.47
2022-11-26T18:07:23.988Z,74.38
2022-11-26T18:08:56.127Z,74.40
2022-11-26T18:10:28.406Z,74.52
2022-11-26T18:12:00.641Z,74.49
2022-11-26T18:13:32.603Z,74.26
2022-11-26T18:15:05.239Z,74.54
2022-11-26T18:16:38.814Z,74.36
2022-11-26T18:18:10.817Z,74.44
2022-11-26T18:19:43.878Z,74.60
2022-11-26T18:21:16.218Z,74.47
2022-11-26T18:22:52.037Z,74.40
2022-11-26T18:24:23.990Z,74.50
2022-11-26T18:25:55.900Z,74.59
2022-11-26T18:27:28.794Z,74.89
2022-11-26T18:29:02.248Z,74.84
2022-11-26T18:30:34.464Z,74.61
2022-11-26T18:32:06.702Z,74.48
2022-11-26T18:33:38.739Z,74.62
2022-11-26T18:35:11.006Z,74.90
2022-11-26T18:36:43.110Z,74.64
2022-11-26T18:38:15.466Z,74.38
2022-11-26T18:39:47.558Z,74.31
2022-11-26T18:41:19.800Z,74.61
2022-11-26T18:42:52.537Z,74.58
2022-11-26T18:44:24.634Z,74.50
2022-11-26T18:45:56.730Z,74.43
2022-11-26T18:47:28.733Z,74.40
2022-11-26T18:49:01.035Z,74.66
2022-11-26T18:50:33.281Z,74.65
2022-11-26T18:52:08.369Z,74.58
2022-11-26T18:53:40.629Z,74.87
2022-11-26T18:55:14.092Z,74.79
2022-11-26T18:56:46.156Z,75.00
2022-11-26T19:00:03.733Z,75.07
2022-11-26T19:01:35.704Z,75.34
2022-11-26T19:03:07.702Z,75.49
2022-11-26T19:04:39.648Z,75.51
2022-11-26T19:06:18.425Z,75.79
2022-11-26T19:07:50.907Z,75.79
2022-11-26T19:09:23.225Z,76.03
2022-11-26T19:10:55.338Z,75.93
2022-11-26T19:12:27.560Z,76.04
2022-11-26T19:14:00.506Z,75.63
2022-11-26T19:15:32.439Z,75.73
2022-11-26T19:17:04.650Z,75.70
2022-11-26T19:18:36.787Z,75.75
2022-11-26T19:20:08.925Z,75.50
2022-11-26T19:21:41.042Z,75.24
2022-11-26T19:23:13.269Z,75.44
2022-11-26T19:24:45.199Z,75.71
2022-11-26T19:26:17.782Z,76.04
2022-11-26T19:28:05.080Z,76.35
2022-11-26T19:29:37.562Z,76.31
2022-11-26T19:31:12.499Z,76.26
2022-11-26T19:32:44.553Z,76.63
2022-11-26T19:34:16.686Z,76.72
2022-11-26T19:35:48.695Z,76.64
2022-11-26T19:37:20.969Z,76.54
2022-11-26T19:38:56.679Z,76.55
2022-11-26T19:40:28.625Z,76.40
2022-11-26T19:42:00.718Z,76.53
2022-11-26T19:43:36.503Z,76.61
2022-11-26T19:45:08.969Z,76.37
2022-11-26T19:46:41.585Z,76.39
2022-11-26T19:48:13.685Z,76.36
2022-11-26T19:49:45.800Z,76.32
2022-11-26T19:51:19.066Z,76.50
2022-11-26T19:52:51.199Z,76.52
2022-11-26T19:54:23.672Z,76.76
2022-11-26T19:55:59.324Z,76.91
2022-11-26T19:59:10.214Z,76.68
2022-11-26T20:00:43.180Z,76.32
2022-11-26T20:02:15.878Z,76.21
2022-11-26T20:03:47.834Z,76.47
2022-11-26T20:05:19.694Z,76.22
2022-11-26T20:06:51.816Z,76.56
2022-11-26T20:08:23.683Z,76.69
2022-11-26T20:09:56.063Z,76.97
2022-11-26T20:11:28.879Z,76.97
2022-11-26T20:13:01.034Z,76.65
2022-11-26T20:14:33.151Z,76.68
2022-11-26T20:16:05.884Z,76.79
2022-11-26T20:17:37.876Z,76.99
2022-11-26T20:19:10.360Z,76.99
2022-11-26T20:20:42.526Z,77.05
2022-11-26T20:22:14.926Z,77.10
2022-11-26T20:23:47.041Z,77.23
2022-11-26T20:25:18.954Z,77.40
2022-11-26T20:26:51.600Z,77.08
2022-11-26T20:28:23.692Z,77.15
2022-11-26T20:29:55.582Z,77.13
2022-11-26T20:31:28.214Z,77.13
2022-11-26T20:33:00.623Z,77.08
2022-11-26T20:34:33.940Z,76.49
2022-11-26T20:36:10.198Z,76.67
2022-11-26T20:37:42.269Z,76.63
2022-11-26T20:39:15.109Z,77.09
2022-11-26T20:40:46.956Z,77.47
2022-11-26T20:42:21.589Z,77.54
2022-11-26T20:43:58.495Z,77.82
2022-11-26T20:45:31.110Z,77.63
2022-11-26T20:47:03.041Z,77.58
2022-11-26T20:48:35.325Z,77.41
2022-11-26T20:50:08.041Z,77.63
2022-11-26T20:51:40.121Z,77.47
2022-11-26T20:53:12.686Z,77.50
2022-11-26T20:54:46.489Z,77.58
2022-11-26T20:56:20.865Z,77.50
2022-11-26T20:57:52.938Z,77.50
2022-11-26T20:59:25.274Z,77.46
2022-11-26T21:00:57.690Z,77.63
2022-11-26T21:02:29.769Z,77.53
2022-11-26T21:04:01.844Z,77.54
2022-11-26T21:05:34.303Z,77.72
2022-11-26T21:07:06.237Z,77.70
2022-11-26T21:08:38.395Z,78.21
2022-11-26T21:10:10.855Z,78.18
2022-11-26T21:11:42.811Z,78.44
2022-11-26T21:13:15.862Z,78.37
2022-11-26T21:14:47.697Z,78.41
2022-11-26T21:16:19.698Z,78.50
2022-11-26T21:17:51.887Z,78.53
2022-11-26T21:19:24.925Z,78.26
2022-11-26T21:20:56.981Z,78.06
2022-11-26T21:22:28.919Z,78.17
2022-11-26T21:24:04.883Z,77.84
2022-11-26T21:25:38.551Z,77.85
2022-11-26T21:27:10.506Z,77.36
2022-11-26T21:28:42.428Z,77.03
2022-11-26T21:30:14.525Z,76.87
2022-11-26T21:31:46.354Z,76.85
2022-11-26T21:33:18.355Z,76.87
2022-11-26T21:34:50.419Z,77.20
2022-11-26T21:36:22.396Z,77.43
2022-11-26T21:37:54.288Z,77.74
2022-11-26T21:39:26.359Z,78.03
2022-11-26T21:40:58.349Z,78.25
2022-11-26T21:42:32.453Z,78.64
2022-11-26T21:44:04.511Z,78.60
2022-11-26T21:45:36.413Z,78.67
2022-11-26T21:47:08.447Z,78.52
2022-11-26T21:48:40.309Z,78.64
2022-11-26T21:50:12.725Z,78.70
2022-11-26T21:51:44.726Z,78.52
2022-11-26T21:53:16.587Z,78.87
2022-11-26T21:54:48.560Z,79.05
2022-11-26T21:56:21.899Z,79.08
2022-11-26T21:57:53.826Z,78.85
2022-11-26T21:59:26.002Z,78.73
2022-11-26T22:00:59.218Z,78.52
2022-11-26T22:02:31.188Z,78.38
2022-11-26T22:04:07.721Z,78.75
2022-11-26T22:05:42.039Z,78.37
2022-11-26T22:07:15.101Z,78.54
2022-11-26T22:08:50.282Z,78.25
2022-11-26T22:10:22.084Z,78.50
2022-11-26T22:13:31.960Z,78.83
2022-11-26T22:15:03.953Z,78.68
2022-11-26T22:16:35.937Z,78.72
2022-11-26T22:18:07.834Z,78.71
2022-11-26T22:19:39.939Z,78.73
2022-11-26T22:21:17.446Z,78.88
2022-11-26T22:22:49.413Z,78.82
2022-11-26T22:24:21.671Z,78.77
2022-11-26T22:25:53.548Z,78.30
2022-11-26T22:27:25.581Z,78.08
2022-11-26T22:28:57.991Z,78.21
2022-11-26T22:30:29.951Z,78.67
2022-11-26T22:32:01.858Z,78.64
2022-11-26T22:33:33.730Z,78.62
2022-11-26T22:35:05.841Z,78.77
2022-11-26T22:36:37.964Z,79.08
2022-11-26T22:38:09.777Z,79.12
2022-11-26T22:39:41.812Z,79.02
2022-11-26T22:42:45.603Z,79.23
2022-11-26T22:44:17.890Z,79.25
2022-11-26T22:45:49.822Z,79.15
2022-11-26T22:47:21.731Z,78.92
2022-11-26T22:48:54.696Z,78.59
2022-11-26T22:50:26.617Z,78.69
2022-11-26T22:51:58.430Z,78.63
2022-11-26T22:53:30.803Z,78.46
2022-11-26T22:55:02.749Z,78.21
2022-11-26T22:56:34.835Z,78.16
2022-11-26T22:58:06.737Z,78.10
2022-11-26T22:59:38.948Z,78.06
2022-11-26T23:01:14.950Z,77.97
2022-11-26T23:02:46.942Z,77.83
2022-11-26T23:04:18.878Z,77.38
2022-11-26T23:05:50.775Z,77.38